Moron de la Frontera, Spain

11:17 AM CET on December 06, 2016 (GMT +0100)
Moron Air Base | | Change Station

Elev 289 ft 37.16 °N, 5.62 °W | Updated 17 minutes ago

Clear
Clear
57 °F
Feels Like 57 °F
N
4
Wind Variable Wind from NE

Today
High -- | Low -- °F
--% Chance of Precip.
Yesterday
High -- | Low -- °F
Precip. -- in
Pressure 30.30 in
Visibility -9999.0 miles
Clouds
Dew Point 52 °F
Humidity 82%
Rainfall 0.00 in
Snow Depth Not available.
8:22 AM 6:05 PM
Waxing Crescent, 40% visible
METAR LEMO 061000Z 04003KT CAVOK 14/11 Q1026 NOSIG
Pressure 30.30 in
Visibility -9999.0 miles
Clouds
Dew Point 52 °F
Humidity 82%
Rainfall 0.00 in
Snow Depth Not available.
8:22 AM 6:05 PM
Waxing Crescent, 40% visible
METAR LEMO 061000Z 04003KT CAVOK 14/11 Q1026 NOSIG

10-Day Weather Forecast

×

Almanac

Astronomy

Dec. 06, 2016 Rise Set
Actual Time
Civil Twilight
Nautical Twilight
Astronomical Twilight
Moon
Length of Visible Light
Length of Day
Tomorrow will be .
, % of the Moon is Illuminated

Today's Extremes

Country Highs Country Lows

Community

WunderPhotos

Upload Photos

1,955,935 photos uploaded!

WunderBlog® & News

Nearby

Air Quality

  Air Quality AQ Index Pollutant
Not available.

Snow Depth

Station Depth Elevation

Earthquake Activity

City Distance Mag. Time & Date
Minimum magnitude displayed is 2.5.

Coastal Water Temperatures

Place Temperature

Stations

Nearby Weather Stations

Station Location Temp. Windchill Dew Point Humidity Wind Precip. Elev Updated Type